sensor_id;sensor_type;location;lat;lon;timestamp;P1;durP1;ratioP1;P2;durP2;ratioP2
43771;SDS011;59066;54.782;32.024;2023-03-14T00:00:15;15.57;;;13.95;;
43771;SDS011;59066;54.782;32.024;2023-03-14T00:02:43;17.98;;;14.77;;
43771;SDS011;59066;54.782;32.024;2023-03-14T00:05:11;16.25;;;13.48;;
43771;SDS011;59066;54.782;32.024;2023-03-14T00:07:39;14.90;;;13.27;;
43771;SDS011;59066;54.782;32.024;2023-03-14T00:10:08;17.70;;;15.95;;
43771;SDS011;59066;54.782;32.024;2023-03-14T00:12:37;18.58;;;16.48;;
43771;SDS011;59066;54.782;32.024;2023-03-14T00:15:05;18.98;;;17.08;;
43771;SDS011;59066;54.782;32.024;2023-03-14T00:17:34;16.13;;;13.65;;
43771;SDS011;59066;54.782;32.024;2023-03-14T00:20:03;17.85;;;15.63;;
43771;SDS011;59066;54.782;32.024;2023-03-14T00:22:36;17.48;;;15.38;;
43771;SDS011;59066;54.782;32.024;2023-03-14T00:25:05;21.42;;;19.33;;
43771;SDS011;59066;54.782;32.024;2023-03-14T00:27:33;21.15;;;19.05;;
43771;SDS011;59066;54.782;32.024;2023-03-14T00:30:01;19.63;;;16.40;;
43771;SDS011;59066;54.782;32.024;2023-03-14T00:32:29;19.63;;;17.23;;
43771;SDS011;59066;54.782;32.024;2023-03-14T00:34:57;17.38;;;14.63;;
43771;SDS011;59066;54.782;32.024;2023-03-14T00:37:26;18.38;;;16.38;;
43771;SDS011;59066;54.782;32.024;2023-03-14T00:39:54;20.58;;;16.77;;
43771;SDS011;59066;54.782;32.024;2023-03-14T00:42:24;20.98;;;18.75;;
43771;SDS011;59066;54.782;32.024;2023-03-14T00:44:51;17.25;;;13.07;;
43771;SDS011;59066;54.782;32.024;2023-03-14T00:47:18;19.85;;;16.95;;
43771;SDS011;59066;54.782;32.024;2023-03-14T00:49:46;20.25;;;18.15;;
43771;SDS011;59066;54.782;32.024;2023-03-14T00:52:14;18.23;;;15.07;;
43771;SDS011;59066;54.782;32.024;2023-03-14T00:54:42;19.27;;;17.27;;
43771;SDS011;59066;54.782;32.024;2023-03-14T00:57:09;21.00;;;18.83;;
43771;SDS011;59066;54.782;32.024;2023-03-14T00:59:36;19.13;;;17.20;;
43771;SDS011;59066;54.782;32.024;2023-03-14T01:02:04;18.50;;;14.75;;
43771;SDS011;59066;54.782;32.024;2023-03-14T01:04:32;20.95;;;18.83;;
43771;SDS011;59066;54.782;32.024;2023-03-14T01:06:59;22.75;;;16.92;;
43771;SDS011;59066;54.782;32.024;2023-03-14T01:09:27;18.10;;;15.40;;
43771;SDS011;59066;54.782;32.024;2023-03-14T01:11:54;17.98;;;13.90;;
43771;SDS011;59066;54.782;32.024;2023-03-14T01:14:22;17.77;;;14.32;;
43771;SDS011;59066;54.782;32.024;2023-03-14T01:16:49;18.05;;;16.23;;
43771;SDS011;59066;54.782;32.024;2023-03-14T01:19:20;18.65;;;15.07;;
43771;SDS011;59066;54.782;32.024;2023-03-14T01:21:47;19.92;;;15.82;;
43771;SDS011;59066;54.782;32.024;2023-03-14T01:24:15;15.60;;;11.90;;
43771;SDS011;59066;54.782;32.024;2023-03-14T01:26:43;16.27;;;14.00;;
43771;SDS011;59066;54.782;32.024;2023-03-14T01:29:10;17.63;;;13.45;;
43771;SDS011;59066;54.782;32.024;2023-03-14T01:31:38;15.27;;;12.43;;
43771;SDS011;59066;54.782;32.024;2023-03-14T01:34:06;17.45;;;14.82;;
43771;SDS011;59066;54.782;32.024;2023-03-14T01:36:33;16.92;;;14.60;;
43771;SDS011;59066;54.782;32.024;2023-03-14T01:39:02;16.40;;;14.73;;
43771;SDS011;59066;54.782;32.024;2023-03-14T01:41:30;13.60;;;11.25;;
43771;SDS011;59066;54.782;32.024;2023-03-14T01:43:59;15.85;;;11.48;;
43771;SDS011;59066;54.782;32.024;2023-03-14T01:52:23;15.13;;;10.90;;
43771;SDS011;59066;54.782;32.024;2023-03-14T01:54:59;13.75;;;9.65;;
43771;SDS011;59066;54.782;32.024;2023-03-14T01:57:37;13.55;;;10.65;;
43771;SDS011;59066;54.782;32.024;2023-03-14T02:00:12;13.73;;;9.52;;
43771;SDS011;59066;54.782;32.024;2023-03-14T02:02:44;15.27;;;11.20;;
43771;SDS011;59066;54.782;32.024;2023-03-14T02:05:42;12.98;;;11.30;;
43771;SDS011;59066;54.782;32.024;2023-03-14T02:08:18;14.75;;;11.70;;
43771;SDS011;59066;54.782;32.024;2023-03-14T02:10:55;11.38;;;9.07;;
43771;SDS011;59066;54.782;32.024;2023-03-14T02:13:43;13.20;;;11.70;;
43771;SDS011;59066;54.782;32.024;2023-03-14T02:16:43;13.65;;;9.82;;
43771;SDS011;59066;54.782;32.024;2023-03-14T02:22:32;14.63;;;11.38;;
43771;SDS011;59066;54.782;32.024;2023-03-14T02:27:39;13.73;;;9.23;;
43771;SDS011;59066;54.782;32.024;2023-03-14T02:30:11;14.70;;;9.43;;
43771;SDS011;59066;54.782;32.024;2023-03-14T02:32:43;11.60;;;9.02;;
43771;SDS011;59066;54.782;32.024;2023-03-14T02:35:15;15.80;;;11.88;;
43771;SDS011;59066;54.782;32.024;2023-03-14T02:37:53;13.52;;;10.90;;
43771;SDS011;59066;54.782;32.024;2023-03-14T02:40:26;13.40;;;9.95;;
43771;SDS011;59066;54.782;32.024;2023-03-14T02:42:54;11.90;;;8.73;;
43771;SDS011;59066;54.782;32.024;2023-03-14T02:47:54;12.32;;;10.77;;
43771;SDS011;59066;54.782;32.024;2023-03-14T02:50:31;12.05;;;8.75;;
43771;SDS011;59066;54.782;32.024;2023-03-14T02:53:01;12.05;;;8.38;;
43771;SDS011;59066;54.782;32.024;2023-03-14T02:55:29;9.07;;;7.35;;
43771;SDS011;59066;54.782;32.024;2023-03-14T02:58:02;14.18;;;9.77;;
43771;SDS011;59066;54.782;32.024;2023-03-14T03:00:30;11.70;;;9.18;;
43771;SDS011;59066;54.782;32.024;2023-03-14T03:02:57;11.70;;;7.63;;
43771;SDS011;59066;54.782;32.024;2023-03-14T03:05:25;11.45;;;9.85;;
43771;SDS011;59066;54.782;32.024;2023-03-14T03:07:52;12.00;;;9.32;;
43771;SDS011;59066;54.782;32.024;2023-03-14T03:10:20;11.40;;;10.20;;
43771;SDS011;59066;54.782;32.024;2023-03-14T03:12:48;12.75;;;7.50;;
43771;SDS011;59066;54.782;32.024;2023-03-14T03:15:16;11.70;;;9.52;;
43771;SDS011;59066;54.782;32.024;2023-03-14T03:17:43;11.95;;;10.15;;
43771;SDS011;59066;54.782;32.024;2023-03-14T03:20:11;11.75;;;10.48;;
43771;SDS011;59066;54.782;32.024;2023-03-14T03:22:39;13.63;;;10.63;;
43771;SDS011;59066;54.782;32.024;2023-03-14T03:25:09;12.43;;;8.82;;
43771;SDS011;59066;54.782;32.024;2023-03-14T03:27:37;14.27;;;12.80;;
43771;SDS011;59066;54.782;32.024;2023-03-14T03:30:05;13.52;;;10.27;;
43771;SDS011;59066;54.782;32.024;2023-03-14T03:32:34;14.43;;;12.63;;
43771;SDS011;59066;54.782;32.024;2023-03-14T03:35:03;14.32;;;10.07;;
43771;SDS011;59066;54.782;32.024;2023-03-14T03:37:34;17.15;;;11.65;;
43771;SDS011;59066;54.782;32.024;2023-03-14T03:40:04;20.52;;;18.42;;
43771;SDS011;59066;54.782;32.024;2023-03-14T03:42:34;12.80;;;9.13;;
43771;SDS011;59066;54.782;32.024;2023-03-14T03:45:04;14.60;;;12.27;;
43771;SDS011;59066;54.782;32.024;2023-03-14T03:47:36;13.57;;;10.63;;
43771;SDS011;59066;54.782;32.024;2023-03-14T03:50:03;15.15;;;9.73;;
43771;SDS011;59066;54.782;32.024;2023-03-14T03:52:31;14.00;;;10.75;;
43771;SDS011;59066;54.782;32.024;2023-03-14T03:54:59;15.25;;;9.98;;
43771;SDS011;59066;54.782;32.024;2023-03-14T03:57:27;14.52;;;8.98;;
43771;SDS011;59066;54.782;32.024;2023-03-14T03:59:55;15.25;;;9.85;;
43771;SDS011;59066;54.782;32.024;2023-03-14T04:02:23;9.57;;;7.78;;
43771;SDS011;59066;54.782;32.024;2023-03-14T04:04:51;14.52;;;9.93;;
43771;SDS011;59066;54.782;32.024;2023-03-14T04:07:18;11.38;;;9.88;;
43771;SDS011;59066;54.782;32.024;2023-03-14T04:09:46;12.10;;;8.05;;
43771;SDS011;59066;54.782;32.024;2023-03-14T04:12:28;11.43;;;8.45;;
43771;SDS011;59066;54.782;32.024;2023-03-14T04:15:01;12.88;;;8.38;;
43771;SDS011;59066;54.782;32.024;2023-03-14T04:17:29;13.10;;;8.27;;
43771;SDS011;59066;54.782;32.024;2023-03-14T04:19:57;10.10;;;6.53;;
43771;SDS011;59066;54.782;32.024;2023-03-14T04:22:33;10.27;;;7.07;;
43771;SDS011;59066;54.782;32.024;2023-03-14T04:25:00;10.07;;;7.10;;
43771;SDS011;59066;54.782;32.024;2023-03-14T04:27:33;13.43;;;8.30;;
43771;SDS011;59066;54.782;32.024;2023-03-14T04:30:04;10.27;;;7.32;;
43771;SDS011;59066;54.782;32.024;2023-03-14T04:32:49;9.52;;;7.43;;
43771;SDS011;59066;54.782;32.024;2023-03-14T04:35:18;11.43;;;6.93;;
43771;SDS011;59066;54.782;32.024;2023-03-14T04:37:47;15.68;;;7.40;;
43771;SDS011;59066;54.782;32.024;2023-03-14T04:40:16;9.23;;;6.47;;
43771;SDS011;59066;54.782;32.024;2023-03-14T04:42:45;8.95;;;6.05;;
43771;SDS011;59066;54.782;32.024;2023-03-14T04:45:13;13.43;;;7.35;;
43771;SDS011;59066;54.782;32.024;2023-03-14T04:47:42;13.18;;;6.88;;
43771;SDS011;59066;54.782;32.024;2023-03-14T04:50:13;11.65;;;6.90;;
43771;SDS011;59066;54.782;32.024;2023-03-14T04:52:40;8.52;;;6.10;;
43771;SDS011;59066;54.782;32.024;2023-03-14T04:55:08;10.35;;;6.25;;
43771;SDS011;59066;54.782;32.024;2023-03-14T04:57:35;9.50;;;5.97;;
43771;SDS011;59066;54.782;32.024;2023-03-14T05:00:06;4.97;;;3.35;;
43771;SDS011;59066;54.782;32.024;2023-03-14T05:02:53;9.68;;;6.00;;
43771;SDS011;59066;54.782;32.024;2023-03-14T05:05:43;13.98;;;7.30;;
43771;SDS011;59066;54.782;32.024;2023-03-14T05:08:31;8.07;;;5.53;;
43771;SDS011;59066;54.782;32.024;2023-03-14T05:11:19;7.63;;;5.55;;
43771;SDS011;59066;54.782;32.024;2023-03-14T05:14:16;9.50;;;6.47;;
43771;SDS011;59066;54.782;32.024;2023-03-14T05:16:43;6.85;;;5.22;;
43771;SDS011;59066;54.782;32.024;2023-03-14T05:19:34;9.80;;;6.45;;
43771;SDS011;59066;54.782;32.024;2023-03-14T05:22:20;9.88;;;6.65;;
43771;SDS011;59066;54.782;32.024;2023-03-14T05:25:11;10.07;;;6.50;;
43771;SDS011;59066;54.782;32.024;2023-03-14T05:27:47;7.00;;;5.22;;
43771;SDS011;59066;54.782;32.024;2023-03-14T05:30:44;8.97;;;6.40;;
43771;SDS011;59066;54.782;32.024;2023-03-14T05:33:31;13.13;;;7.47;;
43771;SDS011;59066;54.782;32.024;2023-03-14T05:36:14;7.72;;;6.60;;
43771;SDS011;59066;54.782;32.024;2023-03-14T05:39:02;9.20;;;5.65;;
43771;SDS011;59066;54.782;32.024;2023-03-14T05:41:48;10.00;;;5.88;;
43771;SDS011;59066;54.782;32.024;2023-03-14T05:44:15;10.77;;;6.50;;
43771;SDS011;59066;54.782;32.024;2023-03-14T05:46:58;9.90;;;6.07;;
43771;SDS011;59066;54.782;32.024;2023-03-14T05:49:44;10.93;;;5.78;;
43771;SDS011;59066;54.782;32.024;2023-03-14T05:52:21;10.02;;;6.07;;
43771;SDS011;59066;54.782;32.024;2023-03-14T05:55:24;9.10;;;5.78;;
43771;SDS011;59066;54.782;32.024;2023-03-14T05:57:54;7.45;;;5.07;;
43771;SDS011;59066;54.782;32.024;2023-03-14T06:00:40;11.27;;;5.70;;
43771;SDS011;59066;54.782;32.024;2023-03-14T06:03:21;10.60;;;6.38;;
43771;SDS011;59066;54.782;32.024;2023-03-14T06:05:49;8.32;;;6.38;;
43771;SDS011;59066;54.782;32.024;2023-03-14T06:08:20;8.93;;;5.30;;
43771;SDS011;59066;54.782;32.024;2023-03-14T06:10:47;9.75;;;5.57;;
43771;SDS011;59066;54.782;32.024;2023-03-14T06:13:15;9.80;;;5.40;;
43771;SDS011;59066;54.782;32.024;2023-03-14T06:15:43;10.55;;;6.53;;
43771;SDS011;59066;54.782;32.024;2023-03-14T06:18:11;10.15;;;6.70;;
43771;SDS011;59066;54.782;32.024;2023-03-14T06:20:40;10.98;;;7.63;;
43771;SDS011;59066;54.782;32.024;2023-03-14T06:23:10;10.18;;;6.82;;
43771;SDS011;59066;54.782;32.024;2023-03-14T06:25:38;8.40;;;6.43;;
43771;SDS011;59066;54.782;32.024;2023-03-14T06:28:05;8.73;;;6.10;;
43771;SDS011;59066;54.782;32.024;2023-03-14T06:30:34;12.32;;;7.47;;
43771;SDS011;59066;54.782;32.024;2023-03-14T06:33:01;15.10;;;8.27;;
43771;SDS011;59066;54.782;32.024;2023-03-14T06:35:29;7.88;;;5.55;;
43771;SDS011;59066;54.782;32.024;2023-03-14T06:37:57;9.13;;;5.07;;
43771;SDS011;59066;54.782;32.024;2023-03-14T06:40:25;7.97;;;4.15;;
43771;SDS011;59066;54.782;32.024;2023-03-14T06:43:06;9.60;;;6.32;;
43771;SDS011;59066;54.782;32.024;2023-03-14T06:45:35;7.90;;;5.07;;
43771;SDS011;59066;54.782;32.024;2023-03-14T06:48:02;7.55;;;5.18;;
43771;SDS011;59066;54.782;32.024;2023-03-14T06:53:47;8.23;;;5.05;;
43771;SDS011;59066;54.782;32.024;2023-03-14T06:56:18;8.63;;;4.80;;
43771;SDS011;59066;54.782;32.024;2023-03-14T06:58:46;4.28;;;2.75;;
43771;SDS011;59066;54.782;32.024;2023-03-14T07:01:20;8.15;;;4.78;;
43771;SDS011;59066;54.782;32.024;2023-03-14T07:03:51;9.00;;;6.68;;
43771;SDS011;59066;54.782;32.024;2023-03-14T07:06:20;6.60;;;4.38;;
43771;SDS011;59066;54.782;32.024;2023-03-14T07:08:48;11.80;;;6.95;;
43771;SDS011;59066;54.782;32.024;2023-03-14T07:11:17;7.60;;;4.95;;
43771;SDS011;59066;54.782;32.024;2023-03-14T07:13:44;9.90;;;5.97;;
43771;SDS011;59066;54.782;32.024;2023-03-14T07:16:12;10.27;;;6.30;;
43771;SDS011;59066;54.782;32.024;2023-03-14T07:18:39;9.30;;;5.22;;
43771;SDS011;59066;54.782;32.024;2023-03-14T07:21:08;10.07;;;5.00;;
43771;SDS011;59066;54.782;32.024;2023-03-14T07:23:36;8.52;;;5.82;;
43771;SDS011;59066;54.782;32.024;2023-03-14T07:26:05;7.65;;;5.88;;
43771;SDS011;59066;54.782;32.024;2023-03-14T07:28:36;10.13;;;6.03;;
43771;SDS011;59066;54.782;32.024;2023-03-14T07:31:08;9.57;;;6.05;;
43771;SDS011;59066;54.782;32.024;2023-03-14T07:33:37;8.55;;;5.30;;
43771;SDS011;59066;54.782;32.024;2023-03-14T07:36:06;8.50;;;5.68;;
43771;SDS011;59066;54.782;32.024;2023-03-14T07:38:34;12.65;;;7.00;;
43771;SDS011;59066;54.782;32.024;2023-03-14T07:41:12;9.10;;;6.32;;
43771;SDS011;59066;54.782;32.024;2023-03-14T07:43:47;8.70;;;5.28;;
43771;SDS011;59066;54.782;32.024;2023-03-14T07:46:14;7.88;;;5.50;;
43771;SDS011;59066;54.782;32.024;2023-03-14T07:48:42;11.88;;;6.70;;
43771;SDS011;59066;54.782;32.024;2023-03-14T07:51:09;7.30;;;4.85;;
43771;SDS011;59066;54.782;32.024;2023-03-14T07:53:37;11.68;;;6.07;;
43771;SDS011;59066;54.782;32.024;2023-03-14T07:56:05;9.65;;;5.18;;
43771;SDS011;59066;54.782;32.024;2023-03-14T07:58:32;10.07;;;6.65;;
43771;SDS011;59066;54.782;32.024;2023-03-14T08:01:00;9.73;;;6.22;;
43771;SDS011;59066;54.782;32.024;2023-03-14T08:03:27;9.80;;;6.38;;
43771;SDS011;59066;54.782;32.024;2023-03-14T08:05:55;8.18;;;6.07;;
43771;SDS011;59066;54.782;32.024;2023-03-14T08:08:22;9.10;;;5.75;;
43771;SDS011;59066;54.782;32.024;2023-03-14T08:10:49;10.05;;;5.47;;
43771;SDS011;59066;54.782;32.024;2023-03-14T08:13:17;8.95;;;5.78;;
43771;SDS011;59066;54.782;32.024;2023-03-14T08:15:47;9.45;;;6.05;;
43771;SDS011;59066;54.782;32.024;2023-03-14T08:18:15;6.32;;;4.15;;
43771;SDS011;59066;54.782;32.024;2023-03-14T08:20:42;8.15;;;5.20;;
43771;SDS011;59066;54.782;32.024;2023-03-14T08:23:10;9.45;;;6.18;;
43771;SDS011;59066;54.782;32.024;2023-03-14T08:25:37;10.07;;;6.90;;
43771;SDS011;59066;54.782;32.024;2023-03-14T08:28:05;10.20;;;6.03;;
43771;SDS011;59066;54.782;32.024;2023-03-14T08:30:32;9.90;;;5.75;;
43771;SDS011;59066;54.782;32.024;2023-03-14T08:33:00;11.20;;;7.78;;
43771;SDS011;59066;54.782;32.024;2023-03-14T08:35:28;9.55;;;6.75;;
43771;SDS011;59066;54.782;32.024;2023-03-14T08:37:55;8.10;;;5.40;;
43771;SDS011;59066;54.782;32.024;2023-03-14T08:40:23;10.52;;;6.50;;
43771;SDS011;59066;54.782;32.024;2023-03-14T08:42:50;13.15;;;7.30;;
43771;SDS011;59066;54.782;32.024;2023-03-14T08:45:18;9.32;;;6.13;;
43771;SDS011;59066;54.782;32.024;2023-03-14T08:47:45;12.32;;;6.75;;
43771;SDS011;59066;54.782;32.024;2023-03-14T08:50:13;6.32;;;4.45;;
43771;SDS011;59066;54.782;32.024;2023-03-14T08:52:42;10.02;;;5.70;;
43771;SDS011;59066;54.782;32.024;2023-03-14T08:55:09;8.15;;;5.22;;
43771;SDS011;59066;54.782;32.024;2023-03-14T08:57:37;8.35;;;6.00;;
43771;SDS011;59066;54.782;32.024;2023-03-14T09:00:05;10.80;;;8.25;;
43771;SDS011;59066;54.782;32.024;2023-03-14T09:02:42;8.27;;;5.15;;
43771;SDS011;59066;54.782;32.024;2023-03-14T09:05:10;16.95;;;11.00;;
43771;SDS011;59066;54.782;32.024;2023-03-14T09:07:38;9.93;;;6.20;;
43771;SDS011;59066;54.782;32.024;2023-03-14T09:10:06;12.93;;;7.57;;
43771;SDS011;59066;54.782;32.024;2023-03-14T09:12:34;18.20;;;10.23;;
43771;SDS011;59066;54.782;32.024;2023-03-14T09:15:03;13.10;;;8.02;;
43771;SDS011;59066;54.782;32.024;2023-03-14T09:17:30;11.63;;;7.80;;
43771;SDS011;59066;54.782;32.024;2023-03-14T09:19:58;9.75;;;6.93;;
43771;SDS011;59066;54.782;32.024;2023-03-14T09:22:26;10.18;;;6.60;;
43771;SDS011;59066;54.782;32.024;2023-03-14T09:24:53;9.65;;;6.20;;
43771;SDS011;59066;54.782;32.024;2023-03-14T09:27:21;10.10;;;6.57;;
43771;SDS011;59066;54.782;32.024;2023-03-14T09:29:48;11.52;;;7.22;;
43771;SDS011;59066;54.782;32.024;2023-03-14T09:32:15;11.70;;;6.63;;
43771;SDS011;59066;54.782;32.024;2023-03-14T09:34:43;9.43;;;6.72;;
43771;SDS011;59066;54.782;32.024;2023-03-14T09:37:10;11.98;;;7.43;;
43771;SDS011;59066;54.782;32.024;2023-03-14T09:39:38;10.85;;;7.82;;
43771;SDS011;59066;54.782;32.024;2023-03-14T09:42:06;10.25;;;5.85;;
43771;SDS011;59066;54.782;32.024;2023-03-14T09:44:39;12.82;;;6.90;;
43771;SDS011;59066;54.782;32.024;2023-03-14T09:47:17;12.27;;;6.88;;
43771;SDS011;59066;54.782;32.024;2023-03-14T09:49:46;9.60;;;6.22;;
43771;SDS011;59066;54.782;32.024;2023-03-14T09:52:15;12.27;;;7.43;;
43771;SDS011;59066;54.782;32.024;2023-03-14T09:54:51;11.73;;;6.43;;
43771;SDS011;59066;54.782;32.024;2023-03-14T09:57:23;11.20;;;6.75;;
43771;SDS011;59066;54.782;32.024;2023-03-14T09:59:56;10.93;;;6.40;;
43771;SDS011;59066;54.782;32.024;2023-03-14T10:02:39;10.97;;;6.57;;
43771;SDS011;59066;54.782;32.024;2023-03-14T10:05:17;11.77;;;7.07;;
43771;SDS011;59066;54.782;32.024;2023-03-14T10:07:46;15.13;;;8.70;;
43771;SDS011;59066;54.782;32.024;2023-03-14T10:10:24;10.40;;;6.65;;
43771;SDS011;59066;54.782;32.024;2023-03-14T10:12:57;10.07;;;7.45;;
43771;SDS011;59066;54.782;32.024;2023-03-14T10:15:36;11.43;;;7.07;;
43771;SDS011;59066;54.782;32.024;2023-03-14T10:18:09;41.40;;;34.90;;
43771;SDS011;59066;54.782;32.024;2023-03-14T10:20:40;10.23;;;7.15;;
43771;SDS011;59066;54.782;32.024;2023-03-14T10:25:44;11.60;;;8.15;;
43771;SDS011;59066;54.782;32.024;2023-03-14T10:28:23;9.27;;;6.95;;
43771;SDS011;59066;54.782;32.024;2023-03-14T10:30:53;13.75;;;10.68;;
43771;SDS011;59066;54.782;32.024;2023-03-14T10:35:56;9.63;;;5.93;;
43771;SDS011;59066;54.782;32.024;2023-03-14T10:38:25;9.43;;;6.90;;
43771;SDS011;59066;54.782;32.024;2023-03-14T10:40:55;8.65;;;6.32;;
43771;SDS011;59066;54.782;32.024;2023-03-14T10:43:34;9.65;;;6.53;;
43771;SDS011;59066;54.782;32.024;2023-03-14T10:46:08;7.55;;;5.72;;
43771;SDS011;59066;54.782;32.024;2023-03-14T10:48:59;9.43;;;6.78;;
43771;SDS011;59066;54.782;32.024;2023-03-14T10:51:32;10.55;;;6.25;;
43771;SDS011;59066;54.782;32.024;2023-03-14T10:54:01;7.90;;;5.80;;
43771;SDS011;59066;54.782;32.024;2023-03-14T10:56:38;9.27;;;5.72;;
43771;SDS011;59066;54.782;32.024;2023-03-14T10:59:13;7.78;;;5.40;;
43771;SDS011;59066;54.782;32.024;2023-03-14T11:07:40;9.68;;;6.10;;
43771;SDS011;59066;54.782;32.024;2023-03-14T11:10:16;6.72;;;4.57;;
43771;SDS011;59066;54.782;32.024;2023-03-14T11:12:55;7.95;;;5.32;;
43771;SDS011;59066;54.782;32.024;2023-03-14T11:15:45;10.38;;;7.20;;
43771;SDS011;59066;54.782;32.024;2023-03-14T11:27:48;9.23;;;5.43;;
43771;SDS011;59066;54.782;32.024;2023-03-14T11:35:17;21.77;;;13.13;;
43771;SDS011;59066;54.782;32.024;2023-03-14T11:37:51;7.25;;;5.03;;
43771;SDS011;59066;54.782;32.024;2023-03-14T11:40:22;7.25;;;5.15;;
43771;SDS011;59066;54.782;32.024;2023-03-14T11:43:04;6.90;;;5.07;;
43771;SDS011;59066;54.782;32.024;2023-03-14T11:51:00;8.77;;;4.82;;
43771;SDS011;59066;54.782;32.024;2023-03-14T11:53:53;8.75;;;5.28;;
43771;SDS011;59066;54.782;32.024;2023-03-14T11:56:28;8.93;;;4.82;;
43771;SDS011;59066;54.782;32.024;2023-03-14T11:59:19;6.97;;;4.35;;
43771;SDS011;59066;54.782;32.024;2023-03-14T12:02:02;6.03;;;5.07;;
43771;SDS011;59066;54.782;32.024;2023-03-14T12:07:43;8.55;;;5.38;;
43771;SDS011;59066;54.782;32.024;2023-03-14T12:10:20;11.38;;;4.90;;
43771;SDS011;59066;54.782;32.024;2023-03-14T12:12:47;8.52;;;5.22;;
43771;SDS011;59066;54.782;32.024;2023-03-14T12:15:19;6.18;;;4.38;;
43771;SDS011;59066;54.782;32.024;2023-03-14T12:17:53;10.40;;;4.38;;
43771;SDS011;59066;54.782;32.024;2023-03-14T12:20:25;8.50;;;5.22;;
43771;SDS011;59066;54.782;32.024;2023-03-14T12:22:54;8.02;;;5.47;;
43771;SDS011;59066;54.782;32.024;2023-03-14T12:25:24;5.47;;;3.65;;
43771;SDS011;59066;54.782;32.024;2023-03-14T12:33:26;8.95;;;4.90;;
43771;SDS011;59066;54.782;32.024;2023-03-14T12:35:58;8.02;;;4.78;;
43771;SDS011;59066;54.782;32.024;2023-03-14T12:46:57;6.60;;;4.55;;
43771;SDS011;59066;54.782;32.024;2023-03-14T12:49:29;8.25;;;5.13;;
43771;SDS011;59066;54.782;32.024;2023-03-14T12:51:59;5.70;;;3.95;;
43771;SDS011;59066;54.782;32.024;2023-03-14T13:02:51;6.82;;;4.75;;
43771;SDS011;59066;54.782;32.024;2023-03-14T13:05:19;10.30;;;6.28;;
43771;SDS011;59066;54.782;32.024;2023-03-14T13:10:29;8.98;;;4.60;;
43771;SDS011;59066;54.782;32.024;2023-03-14T13:15:40;5.78;;;4.60;;
43771;SDS011;59066;54.782;32.024;2023-03-14T13:18:17;7.78;;;4.68;;
43771;SDS011;59066;54.782;32.024;2023-03-14T13:20:56;6.88;;;4.30;;
43771;SDS011;59066;54.782;32.024;2023-03-14T13:23:29;6.93;;;4.50;;
43771;SDS011;59066;54.782;32.024;2023-03-14T13:25:59;8.68;;;3.47;;
43771;SDS011;59066;54.782;32.024;2023-03-14T13:28:27;7.60;;;4.75;;
43771;SDS011;59066;54.782;32.024;2023-03-14T13:31:01;7.47;;;4.38;;
43771;SDS011;59066;54.782;32.024;2023-03-14T13:33:29;8.75;;;4.70;;
43771;SDS011;59066;54.782;32.024;2023-03-14T13:36:00;6.60;;;4.15;;
43771;SDS011;59066;54.782;32.024;2023-03-14T13:38:31;6.72;;;3.53;;
43771;SDS011;59066;54.782;32.024;2023-03-14T13:41:03;7.25;;;4.20;;
43771;SDS011;59066;54.782;32.024;2023-03-14T13:43:33;7.90;;;3.90;;
43771;SDS011;59066;54.782;32.024;2023-03-14T13:46:15;6.22;;;4.13;;
43771;SDS011;59066;54.782;32.024;2023-03-14T13:48:55;7.57;;;4.90;;
43771;SDS011;59066;54.782;32.024;2023-03-14T13:51:25;8.30;;;4.43;;
43771;SDS011;59066;54.782;32.024;2023-03-14T13:53:58;6.88;;;4.60;;
43771;SDS011;59066;54.782;32.024;2023-03-14T13:56:27;12.00;;;6.32;;
43771;SDS011;59066;54.782;32.024;2023-03-14T13:58:55;7.60;;;5.18;;
43771;SDS011;59066;54.782;32.024;2023-03-14T14:01:30;10.68;;;4.45;;
43771;SDS011;59066;54.782;32.024;2023-03-14T14:04:13;13.20;;;8.52;;
43771;SDS011;59066;54.782;32.024;2023-03-14T14:06:47;8.57;;;5.90;;
43771;SDS011;59066;54.782;32.024;2023-03-14T14:09:27;9.98;;;5.68;;
43771;SDS011;59066;54.782;32.024;2023-03-14T14:12:02;9.30;;;5.10;;
43771;SDS011;59066;54.782;32.024;2023-03-14T14:17:28;7.60;;;4.75;;
43771;SDS011;59066;54.782;32.024;2023-03-14T14:20:07;13.38;;;7.68;;
43771;SDS011;59066;54.782;32.024;2023-03-14T14:22:47;9.32;;;4.85;;
43771;SDS011;59066;54.782;32.024;2023-03-14T14:25:16;5.32;;;3.63;;
43771;SDS011;59066;54.782;32.024;2023-03-14T14:27:47;4.82;;;4.07;;
43771;SDS011;59066;54.782;32.024;2023-03-14T14:32:47;7.15;;;4.53;;
43771;SDS011;59066;54.782;32.024;2023-03-14T14:35:25;7.63;;;5.10;;
43771;SDS011;59066;54.782;32.024;2023-03-14T14:38:00;8.45;;;4.68;;
43771;SDS011;59066;54.782;32.024;2023-03-14T14:40:29;9.82;;;4.43;;
43771;SDS011;59066;54.782;32.024;2023-03-14T14:43:06;8.40;;;3.78;;
43771;SDS011;59066;54.782;32.024;2023-03-14T14:45:34;8.93;;;4.10;;
43771;SDS011;59066;54.782;32.024;2023-03-14T14:48:03;8.50;;;3.67;;
43771;SDS011;59066;54.782;32.024;2023-03-14T14:50:38;9.82;;;4.55;;
43771;SDS011;59066;54.782;32.024;2023-03-14T14:53:36;6.88;;;4.00;;
43771;SDS011;59066;54.782;32.024;2023-03-14T14:56:18;6.15;;;3.75;;
43771;SDS011;59066;54.782;32.024;2023-03-14T14:58:49;12.75;;;5.35;;
43771;SDS011;59066;54.782;32.024;2023-03-14T15:01:21;6.00;;;3.70;;
43771;SDS011;59066;54.782;32.024;2023-03-14T15:03:51;5.25;;;3.40;;
43771;SDS011;59066;54.782;32.024;2023-03-14T15:06:20;7.25;;;4.32;;
43771;SDS011;59066;54.782;32.024;2023-03-14T15:08:48;8.80;;;4.70;;
43771;SDS011;59066;54.782;32.024;2023-03-14T15:11:20;7.53;;;5.05;;
43771;SDS011;59066;54.782;32.024;2023-03-14T15:13:49;7.45;;;3.60;;
43771;SDS011;59066;54.782;32.024;2023-03-14T15:16:18;5.85;;;3.45;;
43771;SDS011;59066;54.782;32.024;2023-03-14T15:18:52;8.68;;;4.57;;
43771;SDS011;59066;54.782;32.024;2023-03-14T15:21:25;6.50;;;3.17;;
43771;SDS011;59066;54.782;32.024;2023-03-14T15:23:54;6.80;;;4.25;;
43771;SDS011;59066;54.782;32.024;2023-03-14T15:26:23;6.00;;;3.63;;
43771;SDS011;59066;54.782;32.024;2023-03-14T15:28:53;6.25;;;3.45;;
43771;SDS011;59066;54.782;32.024;2023-03-14T15:31:20;8.52;;;4.10;;
43771;SDS011;59066;54.782;32.024;2023-03-14T15:33:49;4.85;;;3.53;;
43771;SDS011;59066;54.782;32.024;2023-03-14T15:36:24;9.75;;;5.32;;
43771;SDS011;59066;54.782;32.024;2023-03-14T15:38:54;10.90;;;5.82;;
43771;SDS011;59066;54.782;32.024;2023-03-14T15:41:22;11.60;;;7.55;;
43771;SDS011;59066;54.782;32.024;2023-03-14T15:43:50;11.02;;;3.40;;
43771;SDS011;59066;54.782;32.024;2023-03-14T15:46:17;6.20;;;4.00;;
43771;SDS011;59066;54.782;32.024;2023-03-14T15:48:45;5.90;;;3.80;;
43771;SDS011;59066;54.782;32.024;2023-03-14T15:51:13;12.63;;;2.88;;
43771;SDS011;59066;54.782;32.024;2023-03-14T15:53:41;7.78;;;4.18;;
43771;SDS011;59066;54.782;32.024;2023-03-14T15:56:14;5.57;;;3.30;;
43771;SDS011;59066;54.782;32.024;2023-03-14T15:58:45;8.02;;;5.00;;
43771;SDS011;59066;54.782;32.024;2023-03-14T16:01:15;6.18;;;3.65;;
43771;SDS011;59066;54.782;32.024;2023-03-14T16:03:46;6.95;;;3.50;;
43771;SDS011;59066;54.782;32.024;2023-03-14T16:06:15;14.82;;;8.40;;
43771;SDS011;59066;54.782;32.024;2023-03-14T16:08:42;11.85;;;6.85;;
43771;SDS011;59066;54.782;32.024;2023-03-14T16:11:10;6.88;;;3.28;;
43771;SDS011;59066;54.782;32.024;2023-03-14T16:13:39;6.93;;;4.47;;
43771;SDS011;59066;54.782;32.024;2023-03-14T16:16:07;7.45;;;4.40;;